sensor_id;sensor_type;location;lat;lon;timestamp;P1;durP1;ratioP1;P2;durP2;ratioP2
39020;SDS011;25188;51.958;5.842;2023-11-21T00:02:12;26.73;;;14.07;;
39020;SDS011;25188;51.958;5.842;2023-11-21T00:04:37;26.97;;;13.97;;
39020;SDS011;25188;51.958;5.842;2023-11-21T00:07:03;26.33;;;13.67;;
39020;SDS011;25188;51.958;5.842;2023-11-21T00:09:31;29.03;;;14.77;;
39020;SDS011;25188;51.958;5.842;2023-11-21T00:11:56;26.03;;;15.20;;
39020;SDS011;25188;51.958;5.842;2023-11-21T00:14:24;31.80;;;14.57;;
39020;SDS011;25188;51.958;5.842;2023-11-21T00:16:50;25.17;;;14.63;;
39020;SDS011;25188;51.958;5.842;2023-11-21T00:19:15;22.73;;;13.63;;
39020;SDS011;25188;51.958;5.842;2023-11-21T00:21:41;33.40;;;15.00;;
39020;SDS011;25188;51.958;5.842;2023-11-21T00:24:09;27.80;;;15.07;;
39020;SDS011;25188;51.958;5.842;2023-11-21T00:26:35;29.00;;;14.63;;
39020;SDS011;25188;51.958;5.842;2023-11-21T00:29:04;28.93;;;15.13;;
39020;SDS011;25188;51.958;5.842;2023-11-21T00:31:33;25.93;;;16.13;;
39020;SDS011;25188;51.958;5.842;2023-11-21T00:34:01;28.57;;;15.37;;
39020;SDS011;25188;51.958;5.842;2023-11-21T00:36:28;30.53;;;16.30;;
39020;SDS011;25188;51.958;5.842;2023-11-21T00:38:54;29.50;;;14.93;;
39020;SDS011;25188;51.958;5.842;2023-11-21T00:41:20;35.87;;;17.33;;
39020;SDS011;25188;51.958;5.842;2023-11-21T00:43:46;29.13;;;16.07;;
39020;SDS011;25188;51.958;5.842;2023-11-21T00:46:12;27.20;;;15.17;;
39020;SDS011;25188;51.958;5.842;2023-11-21T00:48:38;32.40;;;16.23;;
39020;SDS011;25188;51.958;5.842;2023-11-21T00:51:04;34.37;;;17.03;;
39020;SDS011;25188;51.958;5.842;2023-11-21T00:53:31;30.87;;;15.40;;
39020;SDS011;25188;51.958;5.842;2023-11-21T00:55:57;30.20;;;15.83;;
39020;SDS011;25188;51.958;5.842;2023-11-21T00:58:26;28.67;;;15.30;;
39020;SDS011;25188;51.958;5.842;2023-11-21T01:00:52;30.93;;;16.03;;
39020;SDS011;25188;51.958;5.842;2023-11-21T01:03:18;27.07;;;14.83;;
39020;SDS011;25188;51.958;5.842;2023-11-21T01:05:43;29.10;;;16.17;;
39020;SDS011;25188;51.958;5.842;2023-11-21T01:08:10;34.87;;;16.67;;
39020;SDS011;25188;51.958;5.842;2023-11-21T01:10:36;29.93;;;14.93;;
39020;SDS011;25188;51.958;5.842;2023-11-21T01:13:02;30.70;;;15.30;;
39020;SDS011;25188;51.958;5.842;2023-11-21T01:15:30;27.20;;;15.50;;
39020;SDS011;25188;51.958;5.842;2023-11-21T01:17:56;29.13;;;14.70;;
39020;SDS011;25188;51.958;5.842;2023-11-21T01:20:22;26.83;;;14.37;;
39020;SDS011;25188;51.958;5.842;2023-11-21T01:22:47;28.13;;;14.10;;
39020;SDS011;25188;51.958;5.842;2023-11-21T01:25:16;24.40;;;13.33;;
39020;SDS011;25188;51.958;5.842;2023-11-21T01:27:42;29.63;;;14.17;;
39020;SDS011;25188;51.958;5.842;2023-11-21T01:30:08;28.17;;;14.47;;
39020;SDS011;25188;51.958;5.842;2023-11-21T01:32:36;28.50;;;14.67;;
39020;SDS011;25188;51.958;5.842;2023-11-21T01:35:02;30.80;;;15.30;;
39020;SDS011;25188;51.958;5.842;2023-11-21T01:37:30;32.47;;;15.60;;
39020;SDS011;25188;51.958;5.842;2023-11-21T01:39:56;31.33;;;14.83;;
39020;SDS011;25188;51.958;5.842;2023-11-21T01:42:22;29.13;;;15.57;;
39020;SDS011;25188;51.958;5.842;2023-11-21T01:44:48;28.80;;;14.37;;
39020;SDS011;25188;51.958;5.842;2023-11-21T01:47:14;26.80;;;14.87;;
39020;SDS011;25188;51.958;5.842;2023-11-21T01:49:40;27.70;;;15.37;;
39020;SDS011;25188;51.958;5.842;2023-11-21T01:52:09;30.40;;;14.20;;
39020;SDS011;25188;51.958;5.842;2023-11-21T01:54:36;27.43;;;14.37;;
39020;SDS011;25188;51.958;5.842;2023-11-21T01:57:02;27.37;;;14.87;;
39020;SDS011;25188;51.958;5.842;2023-11-21T01:59:35;30.33;;;14.80;;
39020;SDS011;25188;51.958;5.842;2023-11-21T02:02:02;26.90;;;14.70;;
39020;SDS011;25188;51.958;5.842;2023-11-21T02:04:32;32.40;;;17.07;;
39020;SDS011;25188;51.958;5.842;2023-11-21T02:06:58;26.73;;;15.03;;
39020;SDS011;25188;51.958;5.842;2023-11-21T02:09:27;35.07;;;16.23;;
39020;SDS011;25188;51.958;5.842;2023-11-21T02:11:56;31.03;;;15.63;;
39020;SDS011;25188;51.958;5.842;2023-11-21T02:14:24;33.60;;;15.23;;
39020;SDS011;25188;51.958;5.842;2023-11-21T02:16:51;34.90;;;15.43;;
39020;SDS011;25188;51.958;5.842;2023-11-21T02:19:18;33.40;;;17.47;;
39020;SDS011;25188;51.958;5.842;2023-11-21T02:21:50;35.53;;;16.87;;
39020;SDS011;25188;51.958;5.842;2023-11-21T02:24:20;33.93;;;16.93;;
39020;SDS011;25188;51.958;5.842;2023-11-21T02:26:47;30.53;;;15.97;;
39020;SDS011;25188;51.958;5.842;2023-11-21T02:29:13;31.27;;;16.23;;
39020;SDS011;25188;51.958;5.842;2023-11-21T02:31:42;34.30;;;16.70;;
39020;SDS011;25188;51.958;5.842;2023-11-21T02:34:16;38.30;;;16.33;;
39020;SDS011;25188;51.958;5.842;2023-11-21T02:36:46;36.30;;;16.73;;
39020;SDS011;25188;51.958;5.842;2023-11-21T02:39:16;30.95;;;16.58;;
39020;SDS011;25188;51.958;5.842;2023-11-21T02:41:42;34.27;;;16.60;;
39020;SDS011;25188;51.958;5.842;2023-11-21T02:44:10;34.37;;;17.57;;
39020;SDS011;25188;51.958;5.842;2023-11-21T02:46:36;38.33;;;16.90;;
39020;SDS011;25188;51.958;5.842;2023-11-21T02:49:02;32.40;;;16.77;;
39020;SDS011;25188;51.958;5.842;2023-11-21T02:51:29;29.83;;;15.67;;
39020;SDS011;25188;51.958;5.842;2023-11-21T02:53:55;33.60;;;16.13;;
39020;SDS011;25188;51.958;5.842;2023-11-21T02:56:26;40.43;;;17.50;;
39020;SDS011;25188;51.958;5.842;2023-11-21T02:58:52;41.77;;;16.23;;
39020;SDS011;25188;51.958;5.842;2023-11-21T03:01:20;39.33;;;17.17;;
39020;SDS011;25188;51.958;5.842;2023-11-21T03:03:46;44.10;;;16.40;;
39020;SDS011;25188;51.958;5.842;2023-11-21T03:06:12;38.20;;;17.03;;
39020;SDS011;25188;51.958;5.842;2023-11-21T03:08:38;43.20;;;17.27;;
39020;SDS011;25188;51.958;5.842;2023-11-21T03:11:04;38.70;;;17.17;;
39020;SDS011;25188;51.958;5.842;2023-11-21T03:13:29;40.13;;;16.67;;
39020;SDS011;25188;51.958;5.842;2023-11-21T03:15:55;44.87;;;17.63;;
39020;SDS011;25188;51.958;5.842;2023-11-21T03:18:21;54.97;;;16.97;;
39020;SDS011;25188;51.958;5.842;2023-11-21T03:20:50;48.80;;;16.23;;
39020;SDS011;25188;51.958;5.842;2023-11-21T03:23:17;50.07;;;18.03;;
39020;SDS011;25188;51.958;5.842;2023-11-21T03:25:43;50.77;;;17.47;;
39020;SDS011;25188;51.958;5.842;2023-11-21T03:28:09;55.33;;;15.93;;
39020;SDS011;25188;51.958;5.842;2023-11-21T03:30:34;40.57;;;15.97;;
39020;SDS011;25188;51.958;5.842;2023-11-21T03:33:00;53.07;;;15.33;;
39020;SDS011;25188;51.958;5.842;2023-11-21T03:35:26;35.50;;;15.90;;
39020;SDS011;25188;51.958;5.842;2023-11-21T03:37:52;51.50;;;16.63;;
39020;SDS011;25188;51.958;5.842;2023-11-21T03:40:17;40.60;;;16.33;;
39020;SDS011;25188;51.958;5.842;2023-11-21T03:42:43;37.60;;;15.97;;
39020;SDS011;25188;51.958;5.842;2023-11-21T03:45:09;41.93;;;16.03;;
39020;SDS011;25188;51.958;5.842;2023-11-21T03:47:35;44.63;;;15.20;;
39020;SDS011;25188;51.958;5.842;2023-11-21T03:50:00;42.13;;;13.50;;
39020;SDS011;25188;51.958;5.842;2023-11-21T03:52:26;31.57;;;13.47;;
39020;SDS011;25188;51.958;5.842;2023-11-21T03:54:53;59.10;;;15.77;;
39020;SDS011;25188;51.958;5.842;2023-11-21T03:57:20;35.73;;;14.60;;
39020;SDS011;25188;51.958;5.842;2023-11-21T03:59:46;31.03;;;14.43;;
39020;SDS011;25188;51.958;5.842;2023-11-21T04:02:11;34.33;;;13.23;;
39020;SDS011;25188;51.958;5.842;2023-11-21T04:04:37;32.30;;;13.27;;
39020;SDS011;25188;51.958;5.842;2023-11-21T04:07:03;40.13;;;14.83;;
39020;SDS011;25188;51.958;5.842;2023-11-21T04:09:29;33.00;;;13.23;;
39020;SDS011;25188;51.958;5.842;2023-11-21T04:11:55;34.60;;;14.33;;
39020;SDS011;25188;51.958;5.842;2023-11-21T04:14:20;32.63;;;13.70;;
39020;SDS011;25188;51.958;5.842;2023-11-21T04:16:47;28.57;;;13.27;;
39020;SDS011;25188;51.958;5.842;2023-11-21T04:19:13;36.60;;;13.03;;
39020;SDS011;25188;51.958;5.842;2023-11-21T04:21:42;32.07;;;12.63;;
39020;SDS011;25188;51.958;5.842;2023-11-21T04:24:08;33.33;;;12.73;;
39020;SDS011;25188;51.958;5.842;2023-11-21T04:26:34;21.67;;;11.43;;
39020;SDS011;25188;51.958;5.842;2023-11-21T04:28:59;29.07;;;12.90;;
39020;SDS011;25188;51.958;5.842;2023-11-21T04:31:25;22.30;;;12.70;;
39020;SDS011;25188;51.958;5.842;2023-11-21T04:33:51;26.57;;;12.83;;
39020;SDS011;25188;51.958;5.842;2023-11-21T04:36:16;26.27;;;13.07;;
39020;SDS011;25188;51.958;5.842;2023-11-21T04:38:42;26.63;;;12.67;;
39020;SDS011;25188;51.958;5.842;2023-11-21T04:41:08;26.97;;;14.10;;
39020;SDS011;25188;51.958;5.842;2023-11-21T04:43:33;29.20;;;12.53;;
39020;SDS011;25188;51.958;5.842;2023-11-21T04:45:59;21.60;;;12.10;;
39020;SDS011;25188;51.958;5.842;2023-11-21T04:48:25;22.27;;;13.03;;
39020;SDS011;25188;51.958;5.842;2023-11-21T04:50:51;30.20;;;13.80;;
39020;SDS011;25188;51.958;5.842;2023-11-21T04:53:17;24.30;;;13.07;;
39020;SDS011;25188;51.958;5.842;2023-11-21T04:55:42;31.83;;;13.60;;
39020;SDS011;25188;51.958;5.842;2023-11-21T04:58:09;22.57;;;13.30;;
39020;SDS011;25188;51.958;5.842;2023-11-21T05:00:36;30.20;;;13.60;;
39020;SDS011;25188;51.958;5.842;2023-11-21T05:03:02;23.33;;;13.97;;
39020;SDS011;25188;51.958;5.842;2023-11-21T05:05:29;24.37;;;14.27;;
39020;SDS011;25188;51.958;5.842;2023-11-21T05:07:58;23.87;;;13.63;;
39020;SDS011;25188;51.958;5.842;2023-11-21T05:10:24;22.50;;;13.03;;
39020;SDS011;25188;51.958;5.842;2023-11-21T05:12:50;22.73;;;13.87;;
39020;SDS011;25188;51.958;5.842;2023-11-21T05:15:16;24.60;;;13.20;;
39020;SDS011;25188;51.958;5.842;2023-11-21T05:17:42;28.47;;;14.77;;
39020;SDS011;25188;51.958;5.842;2023-11-21T05:20:10;23.97;;;12.63;;
39020;SDS011;25188;51.958;5.842;2023-11-21T05:22:37;24.20;;;14.20;;
39020;SDS011;25188;51.958;5.842;2023-11-21T05:25:03;24.97;;;14.03;;
39020;SDS011;25188;51.958;5.842;2023-11-21T05:27:30;25.10;;;13.73;;
39020;SDS011;25188;51.958;5.842;2023-11-21T05:29:56;26.63;;;14.63;;
39020;SDS011;25188;51.958;5.842;2023-11-21T05:32:23;25.13;;;13.57;;
39020;SDS011;25188;51.958;5.842;2023-11-21T05:34:49;24.20;;;13.57;;
39020;SDS011;25188;51.958;5.842;2023-11-21T05:37:14;22.20;;;13.37;;
39020;SDS011;25188;51.958;5.842;2023-11-21T05:39:40;23.03;;;13.90;;
39020;SDS011;25188;51.958;5.842;2023-11-21T05:42:06;24.43;;;13.43;;
39020;SDS011;25188;51.958;5.842;2023-11-21T05:44:33;23.27;;;12.83;;
39020;SDS011;25188;51.958;5.842;2023-11-21T05:47:00;22.23;;;13.10;;
39020;SDS011;25188;51.958;5.842;2023-11-21T05:49:25;22.47;;;12.60;;
39020;SDS011;25188;51.958;5.842;2023-11-21T05:51:52;23.47;;;12.77;;
39020;SDS011;25188;51.958;5.842;2023-11-21T05:54:21;23.37;;;13.50;;
39020;SDS011;25188;51.958;5.842;2023-11-21T05:56:47;22.17;;;12.77;;
39020;SDS011;25188;51.958;5.842;2023-11-21T05:59:12;25.00;;;13.50;;
39020;SDS011;25188;51.958;5.842;2023-11-21T06:01:38;23.10;;;12.83;;
39020;SDS011;25188;51.958;5.842;2023-11-21T06:04:04;23.77;;;13.50;;
39020;SDS011;25188;51.958;5.842;2023-11-21T06:06:30;22.33;;;12.87;;
39020;SDS011;25188;51.958;5.842;2023-11-21T06:08:56;22.90;;;13.97;;
39020;SDS011;25188;51.958;5.842;2023-11-21T06:11:22;24.93;;;13.93;;
39020;SDS011;25188;51.958;5.842;2023-11-21T06:13:49;21.77;;;13.63;;
39020;SDS011;25188;51.958;5.842;2023-11-21T06:16:15;23.23;;;13.70;;
39020;SDS011;25188;51.958;5.842;2023-11-21T06:18:43;21.70;;;12.93;;
39020;SDS011;25188;51.958;5.842;2023-11-21T06:21:10;22.77;;;12.80;;
39020;SDS011;25188;51.958;5.842;2023-11-21T06:23:35;23.23;;;12.83;;
39020;SDS011;25188;51.958;5.842;2023-11-21T06:26:01;21.47;;;13.83;;
39020;SDS011;25188;51.958;5.842;2023-11-21T06:28:27;23.90;;;14.47;;
39020;SDS011;25188;51.958;5.842;2023-11-21T06:30:53;25.17;;;13.67;;
39020;SDS011;25188;51.958;5.842;2023-11-21T06:33:18;25.43;;;14.67;;
39020;SDS011;25188;51.958;5.842;2023-11-21T06:35:44;22.30;;;14.43;;
39020;SDS011;25188;51.958;5.842;2023-11-21T06:38:10;25.77;;;14.07;;
39020;SDS011;25188;51.958;5.842;2023-11-21T06:40:35;23.27;;;14.10;;
39020;SDS011;25188;51.958;5.842;2023-11-21T06:43:01;25.43;;;14.23;;
39020;SDS011;25188;51.958;5.842;2023-11-21T06:45:27;24.10;;;14.53;;
39020;SDS011;25188;51.958;5.842;2023-11-21T06:47:53;24.43;;;14.53;;
39020;SDS011;25188;51.958;5.842;2023-11-21T06:50:18;26.73;;;15.40;;
39020;SDS011;25188;51.958;5.842;2023-11-21T06:52:44;25.43;;;14.87;;
39020;SDS011;25188;51.958;5.842;2023-11-21T06:55:10;29.57;;;15.83;;
39020;SDS011;25188;51.958;5.842;2023-11-21T06:57:35;26.73;;;15.10;;
39020;SDS011;25188;51.958;5.842;2023-11-21T07:00:02;25.53;;;15.30;;
39020;SDS011;25188;51.958;5.842;2023-11-21T07:02:28;27.33;;;15.67;;
39020;SDS011;25188;51.958;5.842;2023-11-21T07:04:54;27.13;;;15.37;;
39020;SDS011;25188;51.958;5.842;2023-11-21T07:07:19;25.57;;;15.13;;
39020;SDS011;25188;51.958;5.842;2023-11-21T07:09:45;25.67;;;15.63;;
39020;SDS011;25188;51.958;5.842;2023-11-21T07:12:11;28.87;;;16.13;;
39020;SDS011;25188;51.958;5.842;2023-11-21T07:14:37;27.40;;;15.87;;
39020;SDS011;25188;51.958;5.842;2023-11-21T07:17:04;29.63;;;16.00;;
39020;SDS011;25188;51.958;5.842;2023-11-21T07:19:30;34.20;;;15.97;;
39020;SDS011;25188;51.958;5.842;2023-11-21T07:21:55;29.73;;;16.57;;
39020;SDS011;25188;51.958;5.842;2023-11-21T07:24:21;33.23;;;17.80;;
39020;SDS011;25188;51.958;5.842;2023-11-21T07:26:48;29.10;;;16.40;;
39020;SDS011;25188;51.958;5.842;2023-11-21T07:29:13;27.47;;;14.87;;
39020;SDS011;25188;51.958;5.842;2023-11-21T07:31:39;27.57;;;16.20;;
39020;SDS011;25188;51.958;5.842;2023-11-21T07:34:06;30.73;;;16.30;;
39020;SDS011;25188;51.958;5.842;2023-11-21T07:36:33;32.57;;;16.47;;
39020;SDS011;25188;51.958;5.842;2023-11-21T07:38:59;28.83;;;16.63;;
39020;SDS011;25188;51.958;5.842;2023-11-21T07:41:25;30.50;;;17.23;;
39020;SDS011;25188;51.958;5.842;2023-11-21T07:43:51;27.25;;;16.80;;
39020;SDS011;25188;51.958;5.842;2023-11-21T07:46:17;33.87;;;17.53;;
39020;SDS011;25188;51.958;5.842;2023-11-21T07:48:43;32.57;;;17.90;;
39020;SDS011;25188;51.958;5.842;2023-11-21T07:51:09;28.43;;;16.50;;
39020;SDS011;25188;51.958;5.842;2023-11-21T07:53:35;27.17;;;15.83;;
39020;SDS011;25188;51.958;5.842;2023-11-21T07:56:08;27.67;;;15.87;;
39020;SDS011;25188;51.958;5.842;2023-11-21T07:58:37;31.20;;;15.93;;
39020;SDS011;25188;51.958;5.842;2023-11-21T08:01:03;29.33;;;16.93;;
39020;SDS011;25188;51.958;5.842;2023-11-21T08:03:29;31.90;;;16.87;;
39020;SDS011;25188;51.958;5.842;2023-11-21T08:05:56;28.77;;;16.60;;
39020;SDS011;25188;51.958;5.842;2023-11-21T08:08:22;27.33;;;16.47;;
39020;SDS011;25188;51.958;5.842;2023-11-21T08:10:48;30.40;;;16.70;;
39020;SDS011;25188;51.958;5.842;2023-11-21T08:13:21;27.93;;;14.97;;
39020;SDS011;25188;51.958;5.842;2023-11-21T08:15:48;29.73;;;16.73;;
39020;SDS011;25188;51.958;5.842;2023-11-21T08:18:13;32.87;;;16.53;;
39020;SDS011;25188;51.958;5.842;2023-11-21T08:20:40;35.07;;;16.80;;
39020;SDS011;25188;51.958;5.842;2023-11-21T08:23:05;30.00;;;17.63;;
39020;SDS011;25188;51.958;5.842;2023-11-21T08:25:31;32.22;;;17.98;;
39020;SDS011;25188;51.958;5.842;2023-11-21T08:27:59;38.63;;;18.63;;
39020;SDS011;25188;51.958;5.842;2023-11-21T08:30:25;34.93;;;18.13;;
39020;SDS011;25188;51.958;5.842;2023-11-21T08:32:54;32.97;;;18.47;;
39020;SDS011;25188;51.958;5.842;2023-11-21T08:35:23;39.07;;;18.23;;
39020;SDS011;25188;51.958;5.842;2023-11-21T08:37:51;38.60;;;19.10;;
39020;SDS011;25188;51.958;5.842;2023-11-21T08:40:20;39.17;;;18.53;;
39020;SDS011;25188;51.958;5.842;2023-11-21T08:42:47;44.37;;;19.67;;
39020;SDS011;25188;51.958;5.842;2023-11-21T08:45:13;35.03;;;18.93;;
39020;SDS011;25188;51.958;5.842;2023-11-21T08:47:39;39.17;;;19.17;;
39020;SDS011;25188;51.958;5.842;2023-11-21T08:50:06;37.03;;;17.70;;
39020;SDS011;25188;51.958;5.842;2023-11-21T08:52:33;34.93;;;17.80;;
39020;SDS011;25188;51.958;5.842;2023-11-21T08:54:59;35.33;;;18.60;;
39020;SDS011;25188;51.958;5.842;2023-11-21T08:57:32;35.35;;;18.25;;
39020;SDS011;25188;51.958;5.842;2023-11-21T08:59:58;35.40;;;17.60;;
39020;SDS011;25188;51.958;5.842;2023-11-21T09:02:27;38.60;;;18.00;;
39020;SDS011;25188;51.958;5.842;2023-11-21T09:04:53;35.83;;;17.67;;
39020;SDS011;25188;51.958;5.842;2023-11-21T09:07:19;32.47;;;17.05;;
39020;SDS011;25188;51.958;5.842;2023-11-21T09:09:46;32.10;;;17.40;;
39020;SDS011;25188;51.958;5.842;2023-11-21T09:12:12;40.05;;;17.65;;
39020;SDS011;25188;51.958;5.842;2023-11-21T09:14:38;36.75;;;17.40;;
39020;SDS011;25188;51.958;5.842;2023-11-21T09:17:04;36.33;;;18.63;;
39020;SDS011;25188;51.958;5.842;2023-11-21T09:19:40;33.55;;;18.52;;
39020;SDS011;25188;51.958;5.842;2023-11-21T09:22:06;36.83;;;17.70;;
39020;SDS011;25188;51.958;5.842;2023-11-21T09:24:35;41.38;;;18.85;;
39020;SDS011;25188;51.958;5.842;2023-11-21T09:27:01;35.47;;;17.88;;
39020;SDS011;25188;51.958;5.842;2023-11-21T09:29:27;37.80;;;18.50;;
39020;SDS011;25188;51.958;5.842;2023-11-21T09:31:53;39.17;;;19.60;;
39020;SDS011;25188;51.958;5.842;2023-11-21T09:34:20;38.85;;;18.98;;
39020;SDS011;25188;51.958;5.842;2023-11-21T09:36:46;39.00;;;18.42;;
39020;SDS011;25188;51.958;5.842;2023-11-21T09:39:12;35.50;;;17.10;;
39020;SDS011;25188;51.958;5.842;2023-11-21T09:41:43;37.92;;;18.40;;
39020;SDS011;25188;51.958;5.842;2023-11-21T09:44:20;41.28;;;19.40;;
39020;SDS011;25188;51.958;5.842;2023-11-21T09:46:58;39.28;;;19.55;;
39020;SDS011;25188;51.958;5.842;2023-11-21T09:49:25;39.38;;;19.13;;
39020;SDS011;25188;51.958;5.842;2023-11-21T09:51:53;32.88;;;19.27;;
39020;SDS011;25188;51.958;5.842;2023-11-21T09:54:21;41.45;;;21.33;;
39020;SDS011;25188;51.958;5.842;2023-11-21T09:56:47;42.97;;;20.52;;
39020;SDS011;25188;51.958;5.842;2023-11-21T09:59:13;35.97;;;18.58;;
39020;SDS011;25188;51.958;5.842;2023-11-21T10:01:41;40.03;;;20.33;;
39020;SDS011;25188;51.958;5.842;2023-11-21T10:04:10;35.42;;;19.15;;
39020;SDS011;25188;51.958;5.842;2023-11-21T10:06:39;42.50;;;21.63;;
39020;SDS011;25188;51.958;5.842;2023-11-21T10:09:10;37.83;;;19.95;;
39020;SDS011;25188;51.958;5.842;2023-11-21T10:11:42;34.88;;;19.08;;
39020;SDS011;25188;51.958;5.842;2023-11-21T10:14:11;35.15;;;19.77;;
39020;SDS011;25188;51.958;5.842;2023-11-21T10:16:38;35.97;;;18.63;;
39020;SDS011;25188;51.958;5.842;2023-11-21T10:19:05;36.33;;;19.27;;
39020;SDS011;25188;51.958;5.842;2023-11-21T10:21:34;36.88;;;18.35;;
39020;SDS011;25188;51.958;5.842;2023-11-21T10:24:00;33.30;;;18.27;;
39020;SDS011;25188;51.958;5.842;2023-11-21T10:26:27;35.05;;;18.27;;
39020;SDS011;25188;51.958;5.842;2023-11-21T10:29:00;34.53;;;18.52;;
39020;SDS011;25188;51.958;5.842;2023-11-21T10:31:28;37.92;;;18.40;;
39020;SDS011;25188;51.958;5.842;2023-11-21T10:34:13;30.23;;;17.55;;
39020;SDS011;25188;51.958;5.842;2023-11-21T10:36:40;32.47;;;17.60;;
39020;SDS011;25188;51.958;5.842;2023-11-21T10:39:06;32.35;;;16.88;;
39020;SDS011;25188;51.958;5.842;2023-11-21T10:41:32;28.20;;;15.75;;
39020;SDS011;25188;51.958;5.842;2023-11-21T10:43:59;31.27;;;16.08;;
39020;SDS011;25188;51.958;5.842;2023-11-21T10:46:25;27.77;;;14.93;;
39020;SDS011;25188;51.958;5.842;2023-11-21T10:48:52;26.75;;;15.13;;
39020;SDS011;25188;51.958;5.842;2023-11-21T10:51:20;26.80;;;14.68;;
39020;SDS011;25188;51.958;5.842;2023-11-21T10:53:46;23.83;;;14.55;;
39020;SDS011;25188;51.958;5.842;2023-11-21T10:56:12;23.95;;;13.15;;
39020;SDS011;25188;51.958;5.842;2023-11-21T10:58:45;22.17;;;11.95;;
39020;SDS011;25188;51.958;5.842;2023-11-21T11:01:11;24.15;;;12.43;;
39020;SDS011;25188;51.958;5.842;2023-11-21T11:03:39;18.67;;;11.02;;
39020;SDS011;25188;51.958;5.842;2023-11-21T11:06:06;19.02;;;11.15;;
39020;SDS011;25188;51.958;5.842;2023-11-21T11:08:41;16.25;;;9.23;;
39020;SDS011;25188;51.958;5.842;2023-11-21T11:11:07;17.35;;;9.70;;
39020;SDS011;25188;51.958;5.842;2023-11-21T11:13:35;15.05;;;9.05;;
39020;SDS011;25188;51.958;5.842;2023-11-21T11:16:02;15.75;;;8.73;;
39020;SDS011;25188;51.958;5.842;2023-11-21T11:18:32;17.63;;;9.60;;
39020;SDS011;25188;51.958;5.842;2023-11-21T11:26:46;20.40;;;11.00;;
39020;SDS011;25188;51.958;5.842;2023-11-21T11:37:34;19.00;;;10.82;;
39020;SDS011;25188;51.958;5.842;2023-11-21T11:40:00;17.40;;;10.00;;
39020;SDS011;25188;51.958;5.842;2023-11-21T11:42:26;15.07;;;9.00;;
39020;SDS011;25188;51.958;5.842;2023-11-21T11:44:52;14.68;;;7.80;;
39020;SDS011;25188;51.958;5.842;2023-11-21T11:47:29;14.15;;;7.57;;
39020;SDS011;25188;51.958;5.842;2023-11-21T11:50:06;15.77;;;8.20;;
39020;SDS011;25188;51.958;5.842;2023-11-21T11:52:53;17.13;;;8.52;;
39020;SDS011;25188;51.958;5.842;2023-11-21T11:55:22;15.23;;;7.93;;
39020;SDS011;25188;51.958;5.842;2023-11-21T11:57:53;14.82;;;8.75;;
39020;SDS011;25188;51.958;5.842;2023-11-21T12:02:53;17.30;;;9.05;;
39020;SDS011;25188;51.958;5.842;2023-11-21T12:05:21;15.65;;;8.48;;
39020;SDS011;25188;51.958;5.842;2023-11-21T12:10:23;15.70;;;8.05;;
39020;SDS011;25188;51.958;5.842;2023-11-21T12:12:51;12.32;;;7.43;;
39020;SDS011;25188;51.958;5.842;2023-11-21T12:15:19;11.23;;;6.32;;
39020;SDS011;25188;51.958;5.842;2023-11-21T12:17:46;12.43;;;6.97;;
39020;SDS011;25188;51.958;5.842;2023-11-21T12:20:14;13.45;;;7.30;;
39020;SDS011;25188;51.958;5.842;2023-11-21T12:22:43;13.27;;;7.03;;
39020;SDS011;25188;51.958;5.842;2023-11-21T12:25:17;12.02;;;6.57;;
39020;SDS011;25188;51.958;5.842;2023-11-21T12:27:46;12.35;;;6.97;;
39020;SDS011;25188;51.958;5.842;2023-11-21T12:30:14;12.90;;;7.25;;
39020;SDS011;25188;51.958;5.842;2023-11-21T12:32:42;13.80;;;7.30;;
39020;SDS011;25188;51.958;5.842;2023-11-21T12:35:09;12.32;;;6.93;;
39020;SDS011;25188;51.958;5.842;2023-11-21T12:37:38;12.32;;;6.97;;
39020;SDS011;25188;51.958;5.842;2023-11-21T12:40:08;12.65;;;7.28;;
39020;SDS011;25188;51.958;5.842;2023-11-21T12:42:37;16.08;;;8.25;;
39020;SDS011;25188;51.958;5.842;2023-11-21T12:47:45;16.42;;;9.13;;
39020;SDS011;25188;51.958;5.842;2023-11-21T12:50:12;16.73;;;9.02;;
39020;SDS011;25188;51.958;5.842;2023-11-21T12:52:49;16.13;;;8.90;;
39020;SDS011;25188;51.958;5.842;2023-11-21T12:55:17;14.13;;;8.20;;
39020;SDS011;25188;51.958;5.842;2023-11-21T12:57:47;16.08;;;8.00;;
39020;SDS011;25188;51.958;5.842;2023-11-21T13:00:16;14.90;;;8.10;;
39020;SDS011;25188;51.958;5.842;2023-11-21T13:02:52;14.35;;;8.23;;
39020;SDS011;25188;51.958;5.842;2023-11-21T13:05:28;13.73;;;7.40;;
39020;SDS011;25188;51.958;5.842;2023-11-21T13:07:56;16.02;;;8.52;;
39020;SDS011;25188;51.958;5.842;2023-11-21T13:10:24;15.98;;;8.27;;
39020;SDS011;25188;51.958;5.842;2023-11-21T13:12:52;15.80;;;9.27;;
39020;SDS011;25188;51.958;5.842;2023-11-21T13:15:18;15.60;;;9.07;;
39020;SDS011;25188;51.958;5.842;2023-11-21T13:17:45;16.23;;;8.93;;
39020;SDS011;25188;51.958;5.842;2023-11-21T13:20:11;20.58;;;10.57;;
39020;SDS011;25188;51.958;5.842;2023-11-21T13:22:54;19.52;;;10.45;;
39020;SDS011;25188;51.958;5.842;2023-11-21T13:25:25;22.00;;;13.35;;
39020;SDS011;25188;51.958;5.842;2023-11-21T13:27:55;21.52;;;12.10;;
39020;SDS011;25188;51.958;5.842;2023-11-21T13:30:25;15.27;;;8.97;;
39020;SDS011;25188;51.958;5.842;2023-11-21T13:32:56;20.42;;;10.93;;
39020;SDS011;25188;51.958;5.842;2023-11-21T13:35:26;22.75;;;12.80;;
39020;SDS011;25188;51.958;5.842;2023-11-21T13:38:06;21.08;;;12.13;;
39020;SDS011;25188;51.958;5.842;2023-11-21T13:40:33;23.05;;;12.77;;
39020;SDS011;25188;51.958;5.842;2023-11-21T13:43:07;22.70;;;12.30;;
39020;SDS011;25188;51.958;5.842;2023-11-21T13:45:38;23.05;;;12.20;;
39020;SDS011;25188;51.958;5.842;2023-11-21T13:48:09;20.63;;;11.77;;
39020;SDS011;25188;51.958;5.842;2023-11-21T13:50:45;20.20;;;11.27;;
39020;SDS011;25188;51.958;5.842;2023-11-21T13:53:21;17.75;;;10.77;;
39020;SDS011;25188;51.958;5.842;2023-11-21T13:55:50;18.70;;;11.13;;
39020;SDS011;25188;51.958;5.842;2023-11-21T13:58:21;20.02;;;11.85;;
39020;SDS011;25188;51.958;5.842;2023-11-21T14:01:06;18.42;;;10.55;;
39020;SDS011;25188;51.958;5.842;2023-11-21T14:03:42;20.42;;;11.57;;
39020;SDS011;25188;51.958;5.842;2023-11-21T14:06:17;17.90;;;10.50;;
39020;SDS011;25188;51.958;5.842;2023-11-21T14:08:49;20.48;;;11.13;;
39020;SDS011;25188;51.958;5.842;2023-11-21T14:11:15;19.23;;;10.73;;
39020;SDS011;25188;51.958;5.842;2023-11-21T14:13:46;21.10;;;9.65;;
39020;SDS011;25188;51.958;5.842;2023-11-21T14:16:14;19.17;;;9.63;;
39020;SDS011;25188;51.958;5.842;2023-11-21T14:18:43;17.98;;;9.02;;
39020;SDS011;25188;51.958;5.842;2023-11-21T14:21:20;19.42;;;10.43;;
39020;SDS011;25188;51.958;5.842;2023-11-21T14:23:46;15.52;;;8.63;;
39020;SDS011;25188;51.958;5.842;2023-11-21T14:26:13;19.50;;;10.30;;
39020;SDS011;25188;51.958;5.842;2023-11-21T14:28:40;21.75;;;11.00;;
39020;SDS011;25188;51.958;5.842;2023-11-21T14:31:06;27.85;;;13.70;;
39020;SDS011;25188;51.958;5.842;2023-11-21T14:33:32;23.52;;;12.15;;
39020;SDS011;25188;51.958;5.842;2023-11-21T14:35:58;23.27;;;12.95;;
39020;SDS011;25188;51.958;5.842;2023-11-21T14:38:24;22.70;;;11.80;;
39020;SDS011;25188;51.958;5.842;2023-11-21T14:40:50;24.30;;;12.38;;
39020;SDS011;25188;51.958;5.842;2023-11-21T14:43:15;20.50;;;10.87;;
39020;SDS011;25188;51.958;5.842;2023-11-21T14:45:42;20.40;;;11.00;;
39020;SDS011;25188;51.958;5.842;2023-11-21T14:48:08;22.83;;;11.60;;